createdAt,value
2022-12-20T00:01:17.650Z,4.70
2022-12-20T00:03:45.242Z,4.80
2022-12-20T00:06:13.378Z,5.38
2022-12-20T00:08:41.077Z,4.90
2022-12-20T00:11:09.795Z,4.70
2022-12-20T00:13:37.937Z,4.60
2022-12-20T00:16:17.378Z,4.65
2022-12-20T00:18:45.157Z,4.70
2022-12-20T00:21:14.124Z,4.63
2022-12-20T00:23:41.875Z,4.47
2022-12-20T00:26:12.407Z,4.40
2022-12-20T00:28:41.277Z,4.78
2022-12-20T00:31:10.036Z,4.65
2022-12-20T00:33:38.276Z,4.43
2022-12-20T00:36:06.749Z,4.55
2022-12-20T00:38:34.981Z,4.68
2022-12-20T00:41:09.542Z,4.60
2022-12-20T00:43:37.325Z,4.82
2022-12-20T00:46:05.478Z,4.78
2022-12-20T00:48:33.430Z,4.72
2022-12-20T00:51:08.918Z,5.10
2022-12-20T00:53:38.001Z,5.30
2022-12-20T00:56:06.150Z,5.07
2022-12-20T00:58:35.447Z,5.35
2022-12-20T01:01:03.536Z,5.53
2022-12-20T01:03:31.180Z,5.05
2022-12-20T01:06:00.547Z,4.63
2022-12-20T01:08:29.785Z,5.97
2022-12-20T01:11:08.951Z,5.63
2022-12-20T01:13:38.882Z,5.28
2022-12-20T01:16:13.720Z,4.85
2022-12-20T01:18:41.485Z,5.50
2022-12-20T01:21:12.096Z,5.53
2022-12-20T01:23:40.456Z,5.05
2022-12-20T01:26:11.047Z,5.25
2022-12-20T01:28:40.310Z,5.07
2022-12-20T01:31:10.013Z,5.38
2022-12-20T01:33:37.648Z,4.90
2022-12-20T01:36:08.549Z,5.65
2022-12-20T01:38:36.286Z,5.90
2022-12-20T01:41:04.376Z,5.80
2022-12-20T01:44:00.932Z,5.70
2022-12-20T01:46:33.933Z,5.18
2022-12-20T01:49:04.453Z,5.13
2022-12-20T01:51:34.540Z,5.63
2022-12-20T01:54:18.522Z,5.10
2022-12-20T01:56:50.485Z,5.45
2022-12-20T01:59:18.092Z,5.70
2022-12-20T02:01:45.476Z,5.68
2022-12-20T02:04:13.118Z,5.93
2022-12-20T02:06:41.092Z,5.38
2022-12-20T02:09:09.375Z,5.90
2022-12-20T02:12:13.376Z,5.97
2022-12-20T02:15:06.567Z,5.95
2022-12-20T02:17:57.918Z,5.88
2022-12-20T02:20:43.764Z,5.75
2022-12-20T02:23:46.656Z,6.35
2022-12-20T02:26:29.293Z,6.07
2022-12-20T02:29:43.255Z,5.78
2022-12-20T02:32:20.802Z,6.38
2022-12-20T02:34:48.349Z,5.95
2022-12-20T02:37:16.185Z,6.53
2022-12-20T02:39:45.517Z,5.93
2022-12-20T02:42:24.209Z,5.78
2022-12-20T02:45:13.811Z,6.05
2022-12-20T02:47:56.149Z,5.82
2022-12-20T02:50:46.292Z,5.63
2022-12-20T02:53:14.038Z,6.13
2022-12-20T02:56:09.933Z,5.78
2022-12-20T02:58:44.111Z,5.22
2022-12-20T03:01:20.370Z,5.30
2022-12-20T03:03:47.848Z,5.10
2022-12-20T03:06:15.289Z,5.38
2022-12-20T03:08:43.008Z,4.88
2022-12-20T03:11:10.343Z,5.65
2022-12-20T03:13:37.755Z,5.07
2022-12-20T03:16:06.101Z,5.00
2022-12-20T03:18:33.563Z,5.00
2022-12-20T03:21:00.893Z,5.20
2022-12-20T03:23:28.258Z,5.05
2022-12-20T03:25:56.316Z,4.40
2022-12-20T03:28:23.643Z,5.10
2022-12-20T03:30:51.049Z,5.10
2022-12-20T03:33:18.495Z,4.45
2022-12-20T03:35:47.125Z,4.22
2022-12-20T03:38:14.439Z,4.55
2022-12-20T03:40:41.782Z,4.88
2022-12-20T03:43:09.115Z,4.55
2022-12-20T03:45:36.577Z,4.43
2022-12-20T03:48:04.132Z,4.60
2022-12-20T03:50:31.559Z,5.10
2022-12-20T03:52:59.133Z,4.82
2022-12-20T03:55:30.929Z,4.80
2022-12-20T03:58:02.298Z,5.10
2022-12-20T04:00:30.047Z,4.63
2022-12-20T04:02:58.597Z,4.82
2022-12-20T04:05:25.983Z,5.05
2022-12-20T04:07:53.298Z,4.68
2022-12-20T04:10:20.714Z,5.20
2022-12-20T04:12:48.059Z,4.88
2022-12-20T04:15:15.435Z,5.13
2022-12-20T04:17:55.477Z,5.55
2022-12-20T04:20:22.843Z,5.88
2022-12-20T04:22:51.706Z,6.07
2022-12-20T04:25:23.198Z,6.32
2022-12-20T04:27:50.572Z,6.53
2022-12-20T04:30:18.022Z,6.95
2022-12-20T04:32:45.408Z,7.70
2022-12-20T04:35:12.862Z,7.22
2022-12-20T04:37:40.254Z,7.80
2022-12-20T04:40:10.777Z,7.90
2022-12-20T04:42:38.694Z,7.63
2022-12-20T04:45:07.068Z,7.90
2022-12-20T04:47:34.819Z,7.38
2022-12-20T04:50:02.421Z,7.45
2022-12-20T04:52:49.288Z,7.32
2022-12-20T04:55:17.353Z,7.25
2022-12-20T04:57:44.817Z,8.07
2022-12-20T05:00:13.367Z,7.55
2022-12-20T05:02:45.112Z,7.28
2022-12-20T05:05:12.975Z,7.28
2022-12-20T05:07:40.907Z,7.53
2022-12-20T05:10:09.414Z,7.07
2022-12-20T05:12:37.325Z,7.72
2022-12-20T05:15:05.367Z,6.82
2022-12-20T05:17:37.305Z,6.93
2022-12-20T05:20:06.715Z,7.03
2022-12-20T05:22:53.075Z,7.65
2022-12-20T05:25:39.194Z,7.47
2022-12-20T05:28:16.647Z,7.30
2022-12-20T05:30:44.638Z,7.05
2022-12-20T05:33:13.026Z,6.88
2022-12-20T05:35:42.875Z,6.43
2022-12-20T05:38:17.585Z,6.72
2022-12-20T05:40:51.409Z,6.25
2022-12-20T05:43:19.668Z,6.10
2022-12-20T05:45:51.766Z,5.72
2022-12-20T05:48:20.428Z,5.50
2022-12-20T05:50:48.593Z,5.63
2022-12-20T05:53:17.013Z,5.50
2022-12-20T05:55:45.544Z,5.10
2022-12-20T05:58:15.926Z,4.88
2022-12-20T06:00:44.242Z,5.10
2022-12-20T06:03:13.900Z,4.60
2022-12-20T06:05:42.243Z,4.80
2022-12-20T06:08:10.093Z,5.28
2022-12-20T06:10:37.506Z,5.10
2022-12-20T06:13:05.716Z,4.78
2022-12-20T06:15:33.293Z,4.65
2022-12-20T06:18:00.722Z,4.72
2022-12-20T06:20:28.579Z,5.03
2022-12-20T06:22:56.001Z,4.80
2022-12-20T06:25:23.608Z,4.25
2022-12-20T06:27:51.194Z,4.38
2022-12-20T06:30:34.254Z,4.55
2022-12-20T06:35:30.160Z,4.43
2022-12-20T06:37:57.597Z,4.00
2022-12-20T06:40:25.037Z,4.30
2022-12-20T06:42:53.660Z,4.15
2022-12-20T06:45:21.482Z,4.00
2022-12-20T06:47:48.746Z,3.70
2022-12-20T06:50:16.122Z,3.97
2022-12-20T06:52:43.479Z,3.85
2022-12-20T06:55:10.873Z,4.07
2022-12-20T06:57:40.967Z,3.80
2022-12-20T07:00:11.179Z,3.90
2022-12-20T07:02:38.974Z,3.88
2022-12-20T07:05:08.227Z,3.50
2022-12-20T07:07:42.167Z,3.70
2022-12-20T07:10:14.009Z,3.60
2022-12-20T07:12:47.468Z,3.67
2022-12-20T07:15:16.041Z,3.78
2022-12-20T07:17:43.655Z,3.60
2022-12-20T07:20:14.025Z,3.33
2022-12-20T07:22:42.622Z,3.65
2022-12-20T07:25:11.611Z,3.97
2022-12-20T07:27:39.249Z,3.75
2022-12-20T07:30:12.611Z,3.78
2022-12-20T07:32:41.049Z,4.10
2022-12-20T07:38:26.060Z,4.13
2022-12-20T07:43:41.850Z,4.20
2022-12-20T07:48:56.996Z,4.10
2022-12-20T07:51:44.341Z,4.13
2022-12-20T07:54:30.557Z,4.03
2022-12-20T07:57:02.946Z,3.80
2022-12-20T07:59:41.760Z,4.15
2022-12-20T08:02:13.554Z,4.25
2022-12-20T08:04:41.232Z,4.13
2022-12-20T08:07:09.458Z,3.85
2022-12-20T08:09:41.393Z,3.97
2022-12-20T08:12:21.283Z,3.47
2022-12-20T08:14:52.436Z,4.10
2022-12-20T08:17:19.823Z,3.72
2022-12-20T08:19:47.547Z,3.85
2022-12-20T08:22:15.112Z,4.03
2022-12-20T08:24:42.415Z,4.47
2022-12-20T08:27:09.755Z,4.40
2022-12-20T08:29:37.067Z,4.28
2022-12-20T08:32:04.560Z,4.03
2022-12-20T08:34:31.914Z,4.40
2022-12-20T08:37:00.715Z,4.15
2022-12-20T08:39:28.029Z,4.10
2022-12-20T08:41:55.361Z,4.05
2022-12-20T08:44:22.779Z,4.18
2022-12-20T08:46:50.082Z,4.20
2022-12-20T08:49:17.449Z,4.35
2022-12-20T08:51:44.797Z,4.88
2022-12-20T08:54:12.172Z,4.72
2022-12-20T08:56:39.542Z,4.55
2022-12-20T08:59:06.904Z,5.03
2022-12-20T09:01:34.446Z,5.15
2022-12-20T09:04:02.017Z,4.95
2022-12-20T09:06:29.700Z,5.78
2022-12-20T09:08:57.086Z,5.45
2022-12-20T09:11:26.075Z,5.05
2022-12-20T09:13:55.221Z,5.88
2022-12-20T09:16:27.468Z,5.95
2022-12-20T09:19:04.319Z,6.22
2022-12-20T09:21:32.893Z,5.78
2022-12-20T09:24:00.274Z,4.97
2022-12-20T09:26:27.687Z,5.85
2022-12-20T09:28:55.183Z,4.55
2022-12-20T09:31:24.507Z,5.63
2022-12-20T09:33:55.054Z,5.00
2022-12-20T09:36:23.888Z,5.75
2022-12-20T09:41:57.230Z,5.53
2022-12-20T09:44:25.841Z,5.68
2022-12-20T09:47:10.603Z,5.25
2022-12-20T09:49:42.069Z,6.22
2022-12-20T09:52:27.587Z,6.00
2022-12-20T09:55:13.797Z,6.47
2022-12-20T09:57:49.987Z,6.63
2022-12-20T10:00:19.165Z,6.25
2022-12-20T10:03:09.510Z,6.38
2022-12-20T10:05:52.198Z,6.53
2022-12-20T10:08:44.271Z,6.25
2022-12-20T10:11:59.786Z,6.47
2022-12-20T10:14:39.419Z,6.55
2022-12-20T10:17:15.688Z,6.78
2022-12-20T10:20:11.659Z,6.40
2022-12-20T10:23:17.205Z,6.15
2022-12-20T10:25:52.191Z,7.40
2022-12-20T10:28:24.974Z,6.60
2022-12-20T10:30:52.713Z,6.95
2022-12-20T10:33:25.431Z,7.18
2022-12-20T10:35:53.356Z,7.72
2022-12-20T10:38:21.056Z,7.60
2022-12-20T10:41:22.655Z,6.95
2022-12-20T10:44:16.072Z,7.68
2022-12-20T10:46:46.211Z,7.30
2022-12-20T10:49:32.104Z,7.75
2022-12-20T10:52:10.515Z,8.98
2022-12-20T10:54:46.563Z,8.20
2022-12-20T10:57:21.023Z,8.50
2022-12-20T11:00:17.252Z,8.07
2022-12-20T11:03:12.250Z,7.72
2022-12-20T11:05:47.264Z,8.32
2022-12-20T11:08:37.682Z,9.30
2022-12-20T11:11:20.019Z,8.35
2022-12-20T11:13:49.313Z,8.63
2022-12-20T11:16:32.874Z,8.32
2022-12-20T11:19:11.376Z,8.65
2022-12-20T11:21:51.964Z,8.50
2022-12-20T11:24:49.029Z,8.27
2022-12-20T11:27:31.898Z,9.27
2022-12-20T11:30:14.583Z,9.65
2022-12-20T11:33:10.316Z,9.07
2022-12-20T11:36:18.426Z,8.85
2022-12-20T11:39:06.761Z,9.25
2022-12-20T11:42:07.174Z,9.43
2022-12-20T11:44:53.875Z,8.77
2022-12-20T11:51:35.720Z,10.73
2022-12-20T12:07:26.047Z,10.63
2022-12-20T12:10:20.346Z,10.32
2022-12-20T12:13:09.187Z,10.18
2022-12-20T12:21:46.938Z,9.90
2022-12-20T12:24:45.375Z,10.43
2022-12-20T12:27:24.912Z,10.35
2022-12-20T12:29:54.452Z,11.65
2022-12-20T12:32:45.205Z,11.45
2022-12-20T12:35:17.927Z,10.98
2022-12-20T12:37:57.452Z,10.98
2022-12-20T12:40:34.346Z,11.95
2022-12-20T12:43:16.865Z,11.40
2022-12-20T12:46:14.349Z,11.73
2022-12-20T12:48:43.632Z,12.15
2022-12-20T12:51:11.885Z,12.00
2022-12-20T12:53:52.616Z,11.68
2022-12-20T12:56:46.642Z,12.73
2022-12-20T12:59:29.686Z,13.40
2022-12-20T13:02:06.659Z,13.15
2022-12-20T13:09:17.091Z,13.63
2022-12-20T13:17:45.826Z,15.07
2022-12-20T13:20:32.840Z,15.20
2022-12-20T13:29:47.634Z,15.77
2022-12-20T13:36:55.108Z,15.60
2022-12-20T13:45:06.866Z,15.00
2022-12-20T13:47:47.011Z,15.80
2022-12-20T13:50:54.507Z,15.85
2022-12-20T13:53:24.249Z,16.30
2022-12-20T13:55:52.247Z,14.95
2022-12-20T13:58:26.054Z,14.95
2022-12-20T14:00:54.739Z,14.48
2022-12-20T14:03:27.133Z,14.50
2022-12-20T14:06:01.729Z,14.63
2022-12-20T14:09:01.316Z,14.70
2022-12-20T14:11:28.821Z,15.45
2022-12-20T14:14:14.941Z,15.18
2022-12-20T14:16:42.628Z,14.80
2022-12-20T14:19:16.541Z,15.52
2022-12-20T14:21:46.118Z,15.85
2022-12-20T14:24:18.845Z,15.55
2022-12-20T14:26:52.728Z,16.20
2022-12-20T14:29:25.479Z,16.42
2022-12-20T14:31:52.853Z,15.65
2022-12-20T14:34:30.051Z,14.88
2022-12-20T14:39:39.589Z,15.82
2022-12-20T14:42:10.043Z,16.55
2022-12-20T14:44:38.708Z,15.95
2022-12-20T14:47:21.671Z,15.45
2022-12-20T14:49:53.517Z,16.10
2022-12-20T14:52:44.063Z,14.95
2022-12-20T14:55:21.161Z,15.95
2022-12-20T14:57:53.865Z,15.48
2022-12-20T15:00:30.053Z,15.63
2022-12-20T15:03:16.344Z,15.95
2022-12-20T15:06:01.052Z,16.38
2022-12-20T15:08:33.153Z,17.15
2022-12-20T15:11:10.340Z,17.00
2022-12-20T15:13:40.837Z,18.10
2022-12-20T15:16:22.190Z,18.67
2022-12-20T15:18:54.849Z,20.45
2022-12-20T15:21:43.327Z,17.67
2022-12-20T15:24:17.305Z,18.02
2022-12-20T15:26:45.406Z,20.70
2022-12-20T15:29:21.809Z,19.30
2022-12-20T15:31:52.186Z,19.65
2022-12-20T15:34:38.561Z,20.23
2022-12-20T15:37:06.413Z,21.95
2022-12-20T15:39:34.591Z,20.73
2022-12-20T15:42:02.971Z,20.65
2022-12-20T15:44:31.704Z,21.42
2022-12-20T15:47:00.113Z,19.90
2022-12-20T15:49:31.622Z,23.02
2022-12-20T15:51:59.430Z,20.45
2022-12-20T15:54:40.039Z,21.75
2022-12-20T15:57:15.943Z,19.67
2022-12-20T16:00:01.579Z,18.55
2022-12-20T16:02:31.309Z,19.67
2022-12-20T16:04:59.515Z,17.90
2022-12-20T16:07:27.282Z,18.02
2022-12-20T16:09:55.066Z,19.30
2022-12-20T16:12:28.570Z,18.30
2022-12-20T16:14:56.063Z,18.73
2022-12-20T16:17:32.552Z,18.30
2022-12-20T16:19:59.915Z,16.88
2022-12-20T16:22:27.256Z,18.17
2022-12-20T16:24:54.745Z,18.27
2022-12-20T16:27:22.183Z,18.08
2022-12-20T16:32:31.113Z,17.17
2022-12-20T16:34:58.484Z,18.13
2022-12-20T16:37:25.733Z,17.70
2022-12-20T16:39:53.219Z,17.48
2022-12-20T16:42:22.453Z,17.90
2022-12-20T16:44:55.705Z,18.67
2022-12-20T16:49:53.176Z,20.60
2022-12-20T16:52:22.403Z,22.20
2022-12-20T16:54:50.655Z,23.60
2022-12-20T16:57:18.043Z,25.00
2022-12-20T16:59:45.416Z,25.83
2022-12-20T17:02:30.218Z,25.13
2022-12-20T17:04:58.157Z,23.35
2022-12-20T17:07:27.026Z,25.45
2022-12-20T17:09:55.149Z,23.90
2022-12-20T17:15:19.357Z,24.90
2022-12-20T17:17:51.798Z,23.45
2022-12-20T17:20:21.904Z,24.00
2022-12-20T17:25:37.004Z,24.58
2022-12-20T17:28:07.293Z,26.55
2022-12-20T17:30:34.720Z,27.83
2022-12-20T17:33:02.166Z,26.35
2022-12-20T17:35:32.370Z,28.08
2022-12-20T17:38:01.881Z,28.90
2022-12-20T17:40:29.907Z,27.23
2022-12-20T17:42:57.425Z,29.52
2022-12-20T17:45:32.722Z,29.73
2022-12-20T17:48:00.250Z,31.48
2022-12-20T17:50:27.994Z,31.17
2022-12-20T17:52:55.536Z,31.48
2022-12-20T17:55:27.759Z,33.00
2022-12-20T17:57:56.539Z,34.40
2022-12-20T18:00:38.174Z,35.97
2022-12-20T18:03:06.800Z,34.27
2022-12-20T18:05:34.547Z,33.80
2022-12-20T18:08:01.781Z,35.20
2022-12-20T18:10:29.105Z,34.95
2022-12-20T18:12:56.957Z,36.67
2022-12-20T18:15:24.328Z,35.78
2022-12-20T18:17:51.699Z,36.22
2022-12-20T18:20:22.179Z,35.70
2022-12-20T18:22:50.052Z,36.00
2022-12-20T18:25:18.380Z,34.75
2022-12-20T18:27:45.986Z,36.75
2022-12-20T18:30:16.235Z,36.75
2022-12-20T18:32:46.498Z,38.08
2022-12-20T18:35:15.884Z,38.15
2022-12-20T18:37:47.608Z,37.13
2022-12-20T18:40:15.202Z,39.63
2022-12-20T18:42:42.856Z,41.60
2022-12-20T18:45:11.471Z,39.97
2022-12-20T18:47:38.920Z,39.67
2022-12-20T18:50:07.344Z,38.47
2022-12-20T18:52:35.194Z,39.80
2022-12-20T18:55:02.846Z,37.70
2022-12-20T18:57:30.194Z,40.50
2022-12-20T18:59:58.575Z,35.67
2022-12-20T19:02:26.284Z,38.72
2022-12-20T19:04:53.797Z,39.13
2022-12-20T19:07:21.425Z,38.92
2022-12-20T19:09:48.807Z,39.25
2022-12-20T19:12:16.216Z,41.33
2022-12-20T19:14:43.658Z,41.38
2022-12-20T19:17:13.159Z,42.72
2022-12-20T19:19:40.702Z,44.17
2022-12-20T19:22:09.987Z,44.45
2022-12-20T19:24:37.757Z,44.70
2022-12-20T19:27:06.340Z,44.50
2022-12-20T19:29:33.925Z,43.30
2022-12-20T19:32:01.748Z,43.53
2022-12-20T19:34:32.641Z,46.60
2022-12-20T19:37:00.253Z,45.47
2022-12-20T19:39:30.105Z,43.95
2022-12-20T19:42:22.927Z,44.88
2022-12-20T19:44:47.368Z,43.38
2022-12-20T19:47:14.851Z,46.75
2022-12-20T19:49:42.616Z,46.58
2022-12-20T19:52:13.585Z,47.45
2022-12-20T19:54:43.019Z,48.55
2022-12-20T19:57:11.604Z,48.92
2022-12-20T19:59:39.148Z,49.35
2022-12-20T20:02:06.883Z,48.17
2022-12-20T20:04:34.770Z,49.85
2022-12-20T20:07:09.962Z,51.00
2022-12-20T20:09:37.835Z,49.70
2022-12-20T20:12:05.843Z,51.88
2022-12-20T20:14:37.223Z,54.13
2022-12-20T20:17:04.996Z,53.38
2022-12-20T20:19:34.202Z,54.13
2022-12-20T20:22:01.757Z,51.70
2022-12-20T20:24:38.752Z,52.95
2022-12-20T20:30:05.457Z,55.25
2022-12-20T20:32:33.379Z,53.92
2022-12-20T20:35:00.780Z,56.38
2022-12-20T20:37:28.240Z,55.10
2022-12-20T20:39:55.565Z,58.58
2022-12-20T20:42:23.523Z,56.85
2022-12-20T20:44:51.286Z,55.08
2022-12-20T20:47:18.706Z,54.75
2022-12-20T20:49:47.292Z,53.22
2022-12-20T20:52:15.375Z,53.90
2022-12-20T20:54:43.357Z,54.25
2022-12-20T20:57:10.694Z,55.80
2022-12-20T20:59:38.112Z,54.63
2022-12-20T21:02:05.685Z,56.20
2022-12-20T21:04:33.125Z,52.65
2022-12-20T21:07:00.626Z,58.00
2022-12-20T21:09:28.758Z,52.65
2022-12-20T21:11:56.255Z,60.90
2022-12-20T21:14:53.569Z,54.35
2022-12-20T21:17:14.418Z,53.50
2022-12-20T21:19:42.121Z,53.75
2022-12-20T21:22:09.653Z,53.15
2022-12-20T21:24:39.636Z,50.92
2022-12-20T21:27:07.056Z,51.88
2022-12-20T21:29:34.775Z,56.25
2022-12-20T21:32:02.127Z,56.60
2022-12-20T21:34:29.485Z,52.97
2022-12-20T21:36:56.870Z,53.67
2022-12-20T21:39:24.523Z,53.13
2022-12-20T21:41:55.709Z,55.15
2022-12-20T21:44:27.353Z,54.42
2022-12-20T21:46:56.166Z,57.90
2022-12-20T21:49:23.772Z,54.80
2022-12-20T21:51:51.209Z,53.15
2022-12-20T21:54:18.544Z,55.85
2022-12-20T21:56:46.166Z,54.65
2022-12-20T21:59:13.624Z,56.25
2022-12-20T22:01:41.284Z,54.58
2022-12-20T22:04:10.381Z,53.65
2022-12-20T22:06:37.797Z,56.33
2022-12-20T22:09:12.501Z,53.30
2022-12-20T22:11:40.424Z,56.95
2022-12-20T22:14:08.128Z,55.67
2022-12-20T22:16:35.891Z,56.28
2022-12-20T22:19:03.696Z,55.63
2022-12-20T22:21:33.248Z,54.17
2022-12-20T22:24:04.055Z,54.83
2022-12-20T22:26:33.285Z,56.72
2022-12-20T22:29:05.514Z,53.47
2022-12-20T22:31:33.597Z,53.75
2022-12-20T22:34:02.047Z,52.25
2022-12-20T22:36:29.497Z,53.85
2022-12-20T22:38:57.824Z,54.80
2022-12-20T22:41:29.068Z,54.30
2022-12-20T22:43:58.483Z,56.15
2022-12-20T22:46:26.035Z,54.97
2022-12-20T22:48:53.475Z,55.97
2022-12-20T22:51:22.663Z,56.97
2022-12-20T22:53:50.502Z,56.45
2022-12-20T22:56:19.593Z,56.45
2022-12-20T22:58:50.856Z,56.67
2022-12-20T23:01:19.931Z,54.45
2022-12-20T23:03:48.215Z,55.95
2022-12-20T23:06:19.336Z,55.20
2022-12-20T23:08:47.090Z,54.70
2022-12-20T23:11:44.604Z,56.08
2022-12-20T23:14:32.879Z,53.10
2022-12-20T23:17:00.783Z,53.40
2022-12-20T23:19:29.053Z,49.33
2022-12-20T23:22:15.266Z,51.63
2022-12-20T23:24:45.239Z,50.22
2022-12-20T23:27:13.543Z,48.75
2022-12-20T23:29:41.015Z,49.25
2022-12-20T23:32:10.530Z,48.63
2022-12-20T23:34:40.501Z,47.78
2022-12-20T23:37:07.933Z,49.42
2022-12-20T23:39:39.166Z,48.67
2022-12-20T23:42:07.162Z,48.60
2022-12-20T23:44:35.538Z,50.88
2022-12-20T23:47:03.087Z,49.65
2022-12-20T23:49:30.500Z,46.95
2022-12-20T23:51:57.967Z,46.50
2022-12-20T23:54:25.564Z,45.25
2022-12-20T23:56:53.014Z,46.92
2022-12-20T23:59:20.526Z,42.22
